Time;durP1;ratioP1;P1;durP2;ratioP2;P2;SDS_P1;SDS_P2;PMS_P1;PMS_P2;Temp;Humidity;BMP_temperature;BMP_pressure;BME280_temperature;BME280_humidity;BME280_pressure;Samples;Min_cycle;Max_cycle;Signal;HPM_P1;HPM_P2
2022/07/26 00:01:06;;;;;;;;;;;;;;;19.94;77.71;99003.81;4909232;29;19931;-64
2022/07/26 00:03:32;;;;;;;;;;;;;;;19.94;77.85;99009.38;4910001;29;19931;-66
2022/07/26 00:05:58;;;;;;;;;;;;;;;19.92;77.54;99003.38;4916593;29;19930;-65
2022/07/26 00:08:25;;;;;;;;;;;;;;;19.88;77.91;98997.69;4926972;29;19954;-66
2022/07/26 00:10:51;;;;;;;;;;;;;;;19.87;78.19;99001.63;4924990;29;19930;-66
2022/07/26 00:13:18;;;;;;;;;;;;;;;19.85;78.26;99003.97;4927917;29;20402;-65
2022/07/26 00:15:45;;;;;;;;;;;;;;;19.80;78.28;98995.91;4925727;29;20025;-65
2022/07/26 00:18:11;;;;;;;;;;;;;;;19.76;78.19;98998.59;4925948;29;20089;-65
2022/07/26 00:20:37;;;;;;;;;;;;;;;19.74;78.90;98994.56;4927800;29;20057;-66
2022/07/26 00:23:02;;;;;;;;;;;;;;;19.72;78.91;98994.91;4928241;29;19938;-66
2022/07/26 00:25:29;;;;;;;;;;;;;;;19.72;78.91;98994.13;4926593;29;19934;-65
2022/07/26 00:27:55;;;;;;;;;;;;;;;19.71;79.23;98996.06;4927642;29;19930;-65
2022/07/26 00:30:21;;;;;;;;;;;;;;;19.71;79.18;98993.28;4927246;29;19938;-65
2022/07/26 00:32:46;;;;;;;;;;;;;;;19.66;79.29;98991.59;4927130;29;19931;-67
2022/07/26 00:35:12;;;;;;;;;;;;;;;19.61;79.22;98991.06;4943517;29;19938;-68
2022/07/26 00:37:38;;;;;;;;;;;;;;;19.62;79.50;98985.16;4929241;29;19930;-67
2022/07/26 00:40:05;;;;;;;;;;;;;;;19.65;79.68;98989.19;4926161;29;19937;-68
2022/07/26 00:42:32;;;;;;;;;;;;;;;19.65;79.63;98989.19;4942953;28;19990;-67
2022/07/26 00:44:58;;;;;;;;;;;;;;;19.68;79.31;98986.50;4925055;29;19934;-64
2022/07/26 00:47:23;;;;;;;;;;;;;;;19.66;79.62;98985.25;4926955;29;19931;-66
2022/07/26 00:49:49;;;;;;;;;;;;;;;19.65;79.63;98987.19;4927368;29;19937;-68
2022/07/26 00:52:16;;;;;;;;;;;;;;;19.63;79.62;98983.97;4926988;29;20422;-66
2022/07/26 00:54:44;;;;;;;;;;;;;;;19.64;79.94;98987.56;4927097;29;19978;-66
2022/07/26 00:57:10;;;;;;;;;;;;;;;19.62;79.81;98987.91;4928271;29;20440;-69
2022/07/26 00:59:37;;;;;;;;;;;;;;;19.61;79.95;98982.75;4927181;29;19993;-68
2022/07/26 01:02:05;;;;;;;;;;;;;;;19.59;80.14;98980.31;4927473;29;19931;-66
2022/07/26 01:04:31;;;;;;;;;;;;;;;19.59;79.89;98985.03;4925862;29;20474;-67
2022/07/26 01:06:57;;;;;;;;;;;;;;;19.59;80.29;98976.72;4930184;29;19931;-66
2022/07/26 01:09:22;;;;;;;;;;;;;;;19.57;80.10;98979.88;4930666;29;20033;-67
2022/07/26 01:11:49;;;;;;;;;;;;;;;19.57;80.28;98977.09;4932098;28;19931;-67
2022/07/26 01:14:15;;;;;;;;;;;;;;;19.38;80.13;98944.53;4931830;29;20383;-66
2022/07/26 01:16:42;;;;;;;;;;;;;;;19.56;80.13;98975.50;4932495;29;20403;-68
2022/07/26 01:19:08;;;;;;;;;;;;;;;19.55;80.42;98976.66;4932988;29;19931;-67
2022/07/26 01:21:35;;;;;;;;;;;;;;;19.55;80.32;98976.66;4929904;29;19998;-66
2022/07/26 01:24:01;;;;;;;;;;;;;;;19.54;80.05;98978.59;4931319;29;19930;-66
2022/07/26 01:26:27;;;;;;;;;;;;;;;19.53;80.45;98987.28;4930354;29;19931;-68
2022/07/26 01:28:53;;;;;;;;;;;;;;;19.51;80.36;98989.59;4931101;29;19966;-66
2022/07/26 01:31:18;;;;;;;;;;;;;;;19.51;80.16;98989.59;4929094;28;20398;-68
2022/07/26 01:33:44;;;;;;;;;;;;;;;19.52;80.16;98988.47;4930472;29;19938;-67
2022/07/26 01:36:11;;;;;;;;;;;;;;;19.53;80.44;98990.06;4932840;29;20401;-68
2022/07/26 01:38:38;;;;;;;;;;;;;;;19.54;80.44;98986.13;4932800;29;19989;-67
2022/07/26 01:41:04;;;;;;;;;;;;;;;19.55;80.50;98988.53;4928888;29;19937;-67
2022/07/26 01:43:29;;;;;;;;;;;;;;;19.56;80.49;98987.38;4930677;29;19930;-68
2022/07/26 01:45:55;;;;;;;;;;;;;;;19.56;80.10;98989.34;4930788;29;19931;-68
2022/07/26 01:48:21;;;;;;;;;;;;;;;19.58;80.01;98992.56;4927915;29;19938;-67
2022/07/26 01:50:47;;;;;;;;;;;;;;;19.59;80.07;98988.63;4928776;28;19931;-68
2022/07/26 01:53:12;;;;;;;;;;;;;;;19.60;80.10;98995.78;4912222;29;19934;-65
2022/07/26 01:55:40;;;;;;;;;;;;;;;19.57;80.17;98999.28;4928609;29;19946;-67
2022/07/26 01:58:05;;;;;;;;;;;;;;;19.59;80.30;99002.50;4930726;29;20041;-65
2022/07/26 02:00:31;;;;;;;;;;;;;;;19.64;80.45;99004.22;4929030;29;20559;-68
2022/07/26 02:02:57;;;;;;;;;;;;;;;19.65;80.21;99001.06;4927851;29;19930;-68
2022/07/26 02:05:23;;;;;;;;;;;;;;;19.65;80.29;99003.03;4929766;29;19974;-68
2022/07/26 02:07:49;;;;;;;;;;;;;;;19.66;80.05;99016.53;4932991;29;19930;-68
2022/07/26 02:10:14;;;;;;;;;;;;;;;19.64;79.89;99013.31;4929752;29;19973;-68
2022/07/26 02:12:42;;;;;;;;;;;;;;;19.62;79.89;99010.09;4928338;29;19931;-67
2022/07/26 02:15:27;;;;;;;;;;;;;;;19.58;80.15;99011.16;4941892;29;19978;-68
2022/07/26 02:17:53;;;;;;;;;;;;;;;19.60;80.01;99006.88;4928743;29;19974;-68
2022/07/26 02:20:19;;;;;;;;;;;;;;;19.66;79.91;99018.53;4942863;28;19937;-68
2022/07/26 02:22:44;;;;;;;;;;;;;;;19.69;79.76;99020.56;4928607;29;19931;-67
2022/07/26 02:25:10;;;;;;;;;;;;;;;19.72;79.60;99022.63;4930139;29;20406;-68
2022/07/26 02:27:36;;;;;;;;;;;;;;;19.76;79.76;99029.09;4933756;29;19935;-68
2022/07/26 02:30:03;;;;;;;;;;;;;;;19.80;79.44;99026.41;4929394;29;19958;-68
2022/07/26 02:32:30;;;;;;;;;;;;;;;19.87;79.56;99031.31;4928467;29;19978;-68
2022/07/26 02:34:55;;;;;;;;;;;;;;;19.92;79.43;99036.66;4927856;29;19934;-68
2022/07/26 02:37:21;;;;;;;;;;;;;;;19.96;78.91;99032.78;4932726;29;20033;-68
2022/07/26 02:39:47;;;;;;;;;;;;;;;20.01;78.87;99034.50;4929040;29;19930;-68
2022/07/26 02:42:13;;;;;;;;;;;;;;;20.04;78.70;99027.44;4928950;29;20402;-68
2022/07/26 02:44:40;;;;;;;;;;;;;;;20.04;78.75;99033.78;4930123;29;19935;-68
2022/07/26 02:47:07;;;;;;;;;;;;;;;20.09;78.63;99041.03;4911398;29;19931;-68
2022/07/26 02:49:33;;;;;;;;;;;;;;;20.09;78.27;99039.09;4930121;29;19937;-67
2022/07/26 02:51:59;;;;;;;;;;;;;;;20.11;78.31;99035.94;4927035;29;19930;-68
2022/07/26 02:54:24;;;;;;;;;;;;;;;20.14;78.08;99039.97;4927691;28;20037;-68
2022/07/26 02:56:50;;;;;;;;;;;;;;;20.15;78.05;99034.06;4925638;29;19972;-68
2022/07/26 02:59:16;;;;;;;;;;;;;;;20.06;77.92;99019.56;4929989;29;19931;-68
2022/07/26 03:01:42;;;;;;;;;;;;;;;20.19;78.01;99034.97;4928404;29;19930;-66
2022/07/26 03:04:09;;;;;;;;;;;;;;;20.22;77.67;99044.56;4928827;28;19963;-68
2022/07/26 03:06:35;;;;;;;;;;;;;;;20.23;77.81;99040.59;4930188;29;20469;-68
2022/07/26 03:09:00;;;;;;;;;;;;;;;20.25;77.84;99060.47;4929467;29;20038;-67
2022/07/26 03:11:26;;;;;;;;;;;;;;;20.27;77.62;99049.81;4929391;28;19938;-68
2022/07/26 03:13:52;;;;;;;;;;;;;;;20.32;77.76;99051.53;4927802;29;20417;-68
2022/07/26 03:16:18;;;;;;;;;;;;;;;20.33;77.86;99058.69;4927497;28;19942;-68
2022/07/26 03:18:44;;;;;;;;;;;;;;;20.33;77.39;99062.25;4927199;29;19997;-68
2022/07/26 03:21:11;;;;;;;;;;;;;;;20.35;77.59;99059.13;4924128;29;19970;-66
2022/07/26 03:23:37;;;;;;;;;;;;;;;20.35;77.42;99067.44;4931071;29;20029;-68
2022/07/26 03:26:03;;;;;;;;;;;;;;;20.36;77.55;99066.28;4928413;29;20037;-69
2022/07/26 03:28:30;;;;;;;;;;;;;;;20.37;77.33;99074.28;4928586;29;19931;-67
2022/07/26 03:30:55;;;;;;;;;;;;;;;20.43;77.24;99069.22;4945601;29;19931;-68
2022/07/26 03:33:21;;;;;;;;;;;;;;;20.48;77.16;99065.38;4930155;29;20029;-66
2022/07/26 03:35:47;;;;;;;;;;;;;;;20.54;76.99;99075.06;4930089;29;19931;-66
2022/07/26 03:38:14;;;;;;;;;;;;;;;20.61;76.77;99077.22;4926295;29;19958;-65
2022/07/26 03:40:40;;;;;;;;;;;;;;;20.67;76.45;99072.97;4928470;29;19930;-66
2022/07/26 03:43:05;;;;;;;;;;;;;;;20.71;76.21;99076.63;4930366;29;19930;-66
2022/07/26 03:45:31;;;;;;;;;;;;;;;20.73;76.30;99076.28;4944775;28;19931;-67
2022/07/26 03:47:57;;;;;;;;;;;;;;;20.76;76.23;99078.34;4911299;29;20463;-65
2022/07/26 03:50:23;;;;;;;;;;;;;;;20.80;75.86;99068.94;4910723;29;19937;-66
2022/07/26 03:52:48;;;;;;;;;;;;;;;20.88;75.52;99066.31;4913038;29;19939;-66
2022/07/26 03:58:19;;;;;;;;;;;;;;;21.09;74.63;99068.78;4893900;29;20082;-65
2022/07/26 04:00:45;;;;;;;;;;;;;;;21.17;74.31;99058.63;4891050;29;20402;-65
2022/07/26 04:03:11;;;;;;;;;;;;;;;21.21;74.34;99057.53;4891591;29;20353;-66
2022/07/26 04:05:37;;;;;;;;;;;;;;;21.24;74.02;99069.91;4892288;29;19935;-66
2022/07/26 04:08:03;;;;;;;;;;;;;;;21.30;73.73;99067.59;4890402;29;20312;-65
2022/07/26 04:10:30;;;;;;;;;;;;;;;21.37;73.49;99056.66;4905480;29;20330;-65
2022/07/26 04:12:56;;;;;;;;;;;;;;;21.43;72.99;99057.94;4904300;29;19931;-65
2022/07/26 04:15:22;;;;;;;;;;;;;;;21.50;72.84;99058.09;4892895;29;19931;-66
2022/07/26 04:17:47;;;;;;;;;;;;;;;21.57;72.48;99063.00;4906275;29;20118;-66
2022/07/26 04:20:13;;;;;;;;;;;;;;;21.61;72.09;99065.84;4905961;29;20003;-66
2022/07/26 04:22:39;;;;;;;;;;;;;;;21.38;71.81;99028.47;4905650;29;19938;-65
2022/07/26 04:25:06;;;;;;;;;;;;;;;21.67;71.54;99067.97;4875578;29;19957;-66
2022/07/26 04:27:33;;;;;;;;;;;;;;;21.73;71.37;99064.94;4902093;29;19931;-65
2022/07/26 04:29:59;;;;;;;;;;;;;;;21.77;70.92;99066.56;4925696;29;19931;-67
2022/07/26 04:32:25;;;;;;;;;;;;;;;21.81;70.73;99067.47;4928605;29;19937;-66
2022/07/26 04:34:50;;;;;;;;;;;;;;;21.87;70.42;99073.53;4925956;29;19938;-66
2022/07/26 04:37:16;;;;;;;;;;;;;;;21.94;70.07;99065.31;4925415;29;19996;-67
2022/07/26 04:39:42;;;;;;;;;;;;;;;22.05;69.75;99062.72;4914094;29;20394;-65
2022/07/26 04:42:08;;;;;;;;;;;;;;;22.14;69.26;99062.47;4944406;28;19941;-65
2022/07/26 04:44:35;;;;;;;;;;;;;;;22.21;69.33;99062.59;4925560;29;20467;-66
2022/07/26 04:47:01;;;;;;;;;;;;;;;22.28;68.95;99059.13;4925860;29;19946;-66
2022/07/26 04:49:26;;;;;;;;;;;;;;;22.33;69.33;99055.25;4927264;29;19935;-66
2022/07/26 04:51:52;;;;;;;;;;;;;;;22.35;69.46;99061.22;4944068;29;20043;-65
2022/07/26 04:54:19;;;;;;;;;;;;;;;22.37;69.47;99065.22;4927028;29;19930;-66
2022/07/26 04:56:45;;;;;;;;;;;;;;;22.39;69.43;99065.66;4925853;29;19941;-66
2022/07/26 04:59:11;;;;;;;;;;;;;;;22.44;69.09;99060.97;4929091;29;19931;-66
2022/07/26 05:01:38;;;;;;;;;;;;;;;22.46;69.25;99067.75;4928391;29;19931;-66
2022/07/26 05:04:04;;;;;;;;;;;;;;;22.49;69.05;99063.47;4927675;28;20020;-65
2022/07/26 05:06:31;;;;;;;;;;;;;;;22.54;68.66;99063.13;4925182;29;20332;-66
2022/07/26 05:08:56;;;;;;;;;;;;;;;22.59;68.59;99070.38;4925032;29;19946;-66
2022/07/26 05:11:22;;;;;;;;;;;;;;;22.65;68.24;99066.91;4926803;29;20070;-66
2022/07/26 05:13:48;;;;;;;;;;;;;;;22.70;68.10;99064.97;4909301;29;20303;-64
2022/07/26 05:16:14;;;;;;;;;;;;;;;22.74;68.09;99074.19;4927330;29;20001;-67
2022/07/26 05:18:41;;;;;;;;;;;;;;;22.74;68.05;99074.19;4928559;29;19935;-66
2022/07/26 05:21:07;;;;;;;;;;;;;;;22.73;68.06;99083.75;4943584;29;20402;-65
2022/07/26 05:23:32;;;;;;;;;;;;;;;22.74;67.53;99082.56;4928503;29;19934;-65
2022/07/26 05:25:58;;;;;;;;;;;;;;;22.78;67.51;99081.41;4926896;29;19935;-67
2022/07/26 05:28:24;;;;;;;;;;;;;;;22.86;67.31;99081.53;4925455;29;19930;-66
2022/07/26 05:30:50;;;;;;;;;;;;;;;22.91;67.09;99084.78;4911232;29;19931;-67
2022/07/26 05:33:15;;;;;;;;;;;;;;;22.99;66.86;99082.91;4928634;29;19931;-66
2022/07/26 05:35:43;;;;;;;;;;;;;;;23.04;66.75;99081.78;4923196;29;20521;-66
2022/07/26 05:38:08;;;;;;;;;;;;;;;23.11;66.72;99083.88;4908873;29;19931;-66
2022/07/26 05:40:34;;;;;;;;;;;;;;;23.13;66.32;99087.09;4925561;29;19946;-68
2022/07/26 05:43:00;;;;;;;;;;;;;;;23.13;66.38;99078.72;4926358;29;19939;-66
2022/07/26 05:45:26;;;;;;;;;;;;;;;23.15;66.52;99079.94;4923933;29;19938;-67
2022/07/26 05:47:52;;;;;;;;;;;;;;;23.19;66.11;99083.59;4926776;29;19941;-66
2022/07/26 05:50:18;;;;;;;;;;;;;;;23.26;65.52;99085.69;4924582;29;20397;-66
2022/07/26 05:52:45;;;;;;;;;;;;;;;23.28;65.48;99086.13;4924932;29;20453;-66
2022/07/26 05:55:11;;;;;;;;;;;;;;;23.32;65.01;99086.97;4926043;29;20268;-66
2022/07/26 05:57:40;;;;;;;;;;;;;;;23.39;64.73;99080.69;4927694;29;20462;-65
2022/07/26 06:00:07;;;;;;;;;;;;;;;23.46;64.65;99083.53;4942982;28;19990;-65
2022/07/26 06:02:38;;;;;;;;;;;;;;;23.51;64.22;99091.59;4924735;29;20383;-68
2022/07/26 06:05:04;;;;;;;;;;;;;;;23.56;63.88;99087.63;4929776;29;20013;-68
2022/07/26 06:07:30;;;;;;;;;;;;;;;23.63;63.84;99084.94;4931525;29;19931;-66
2022/07/26 06:09:57;;;;;;;;;;;;;;;23.71;63.48;99080.25;4933445;29;19931;-66
2022/07/26 06:12:23;;;;;;;;;;;;;;;23.72;63.04;99078.25;4928769;29;20021;-65
2022/07/26 06:14:48;;;;;;;;;;;;;;;23.77;62.98;99075.13;4926684;28;20517;-66
2022/07/26 06:17:14;;;;;;;;;;;;;;;23.87;62.70;99077.22;4926143;28;20390;-65
2022/07/26 06:19:40;;;;;;;;;;;;;;;24.07;61.90;99074.25;4931276;29;19935;-65
2022/07/26 06:22:06;;;;;;;;;;;;;;;24.26;61.32;99073.22;4921455;29;20437;-67
2022/07/26 06:24:31;;;;;;;;;;;;;;;24.44;60.58;99072.59;4919962;29;20290;-66
2022/07/26 06:26:59;;;;;;;;;;;;;;;24.60;60.03;99073.13;4928688;29;20443;-66
2022/07/26 06:29:25;;;;;;;;;;;;;;;24.74;59.54;99078.00;4930840;29;19931;-65
2022/07/26 06:31:50;;;;;;;;;;;;;;;24.92;59.42;99083.72;4930710;29;19931;-66
2022/07/26 06:34:16;;;;;;;;;;;;;;;25.09;58.48;99077.81;4914600;29;20314;-65
2022/07/26 06:36:42;;;;;;;;;;;;;;;25.23;57.82;99079.91;4931607;29;19935;-66
2022/07/26 06:39:08;;;;;;;;;;;;;;;25.36;57.48;99083.94;4928123;29;19930;-67
2022/07/26 06:41:33;;;;;;;;;;;;;;;25.52;56.74;99074.44;4930008;29;19934;-67
2022/07/26 06:44:01;;;;;;;;;;;;;;;25.59;56.41;99074.47;4931393;29;19931;-66
2022/07/26 06:46:26;;;;;;;;;;;;;;;25.65;56.26;99080.50;4946714;28;20030;-66
2022/07/26 06:48:54;;;;;;;;;;;;;;;25.72;56.17;99081.31;4931672;29;19963;-66
2022/07/26 06:51:19;;;;;;;;;;;;;;;25.75;56.05;99076.91;4932166;29;20351;-67
2022/07/26 06:53:45;;;;;;;;;;;;;;;25.82;55.92;99082.53;4930538;29;19941;-66
2022/07/26 06:56:13;;;;;;;;;;;;;;;25.96;55.56;99075.34;4923469;29;19979;-64
2022/07/26 06:58:39;;;;;;;;;;;;;;;26.07;55.15;99070.59;4913807;29;20317;-67
2022/07/26 07:01:07;;;;;;;;;;;;;;;26.16;54.90;99067.38;4918139;28;19931;-66
2022/07/26 07:03:32;;;;;;;;;;;;;;;26.24;54.50;99063.41;4925037;29;20042;-68
2022/07/26 07:05:58;;;;;;;;;;;;;;;26.39;53.84;99069.00;4917443;29;20038;-67
2022/07/26 07:08:24;;;;;;;;;;;;;;;26.69;52.67;99062.19;4922093;29;19935;-65
2022/07/26 07:10:50;;;;;;;;;;;;;;;26.89;51.79;99066.16;4921039;29;19983;-65
2022/07/26 07:13:16;;;;;;;;;;;;;;;26.99;51.10;99061.72;4935993;28;19935;-68
2022/07/26 07:15:42;;;;;;;;;;;;;;;27.01;50.49;99066.94;4901030;29;20383;-66
2022/07/26 07:18:09;;;;;;;;;;;;;;;27.16;49.97;99062.06;4912405;29;19939;-66
2022/07/26 07:20:35;;;;;;;;;;;;;;;27.25;49.50;99062.44;4921683;29;19930;-65
2022/07/26 07:23:01;;;;;;;;;;;;;;;27.27;49.43;99059.25;4914288;29;19993;-65
2022/07/26 07:25:26;;;;;;;;;;;;;;;27.34;49.65;99064.03;4922800;29;20045;-67
2022/07/26 07:27:52;;;;;;;;;;;;;;;27.36;49.55;99070.03;4919542;29;20331;-68
2022/07/26 07:30:18;;;;;;;;;;;;;;;27.49;49.35;99064.75;4917711;29;19935;-66
2022/07/26 07:32:44;;;;;;;;;;;;;;;27.66;49.05;99063.13;4921161;29;20395;-67
2022/07/26 07:35:11;;;;;;;;;;;;;;;27.73;48.46;99068.66;4919344;29;20363;-67
2022/07/26 07:37:37;;;;;;;;;;;;;;;27.80;48.20;99067.81;4917118;29;19930;-67
2022/07/26 07:40:04;;;;;;;;;;;;;;;27.79;48.12;99069.84;4916958;29;19931;-64
2022/07/26 07:42:29;;;;;;;;;;;;;;;27.95;48.21;99068.56;4926709;29;19931;-68
2022/07/26 07:44:55;;;;;;;;;;;;;;;28.13;47.74;99066.41;4923530;29;19931;-67
2022/07/26 07:47:21;;;;;;;;;;;;;;;28.35;47.35;99063.44;4922732;29;19935;-67
2022/07/26 07:49:47;;;;;;;;;;;;;;;28.50;46.90;99064.13;4917926;29;20026;-68
2022/07/26 07:52:14;;;;;;;;;;;;;;;28.59;46.46;99067.25;4914361;29;19931;-66
2022/07/26 07:54:42;;;;;;;;;;;;;;;28.66;46.57;99066.38;4228635;29;10000669;-65
2022/07/26 07:57:08;;;;;;;;;;;;;;;28.64;46.71;99065.19;4893025;29;19934;-66
2022/07/26 07:59:33;;;;;;;;;;;;;;;28.84;46.20;99071.06;4906962;29;19936;-67
2022/07/26 08:02:02;;;;;;;;;;;;;;;29.05;45.60;99066.44;4912685;29;19930;-65
2022/07/26 08:04:28;;;;;;;;;;;;;;;29.19;44.93;99065.44;4914796;29;20394;-68
2022/07/26 08:06:54;;;;;;;;;;;;;;;29.20;44.98;99073.47;4903930;29;19937;-67
2022/07/26 08:09:21;;;;;;;;;;;;;;;29.30;45.08;99074.56;4904369;29;19931;-70
2022/07/26 08:11:47;;;;;;;;;;;;;;;29.70;44.68;99071.25;4568676;29;10000399;-68
2022/07/26 08:14:13;;;;;;;;;;;;;;;30.06;43.97;99072.78;4917153;29;19931;-65
2022/07/26 08:16:38;;;;;;;;;;;;;;;30.18;42.91;99072.19;4922936;29;19935;-68
2022/07/26 08:19:04;;;;;;;;;;;;;;;30.38;42.26;99077.91;4922834;29;19953;-67
2022/07/26 08:21:30;;;;;;;;;;;;;;;30.53;41.67;99075.63;4922289;29;19931;-68
2022/07/26 08:23:56;;;;;;;;;;;;;;;30.71;41.32;99077.38;4915503;29;20377;-68
2022/07/26 08:26:23;;;;;;;;;;;;;;;31.13;40.63;99072.13;4917999;29;19938;-69
2022/07/26 08:28:49;;;;;;;;;;;;;;;31.37;40.13;99072.09;4917151;29;19934;-66
2022/07/26 08:31:15;;;;;;;;;;;;;;;31.48;39.96;99074.66;4916805;29;19986;-67
2022/07/26 08:33:41;;;;;;;;;;;;;;;31.66;39.42;99076.31;4920983;29;19986;-67
2022/07/26 08:36:07;;;;;;;;;;;;;;;31.70;39.57;99074.22;4896801;29;19931;-66
2022/07/26 08:38:33;;;;;;;;;;;;;;;31.80;39.92;99076.00;4927332;29;20045;-66
2022/07/26 08:40:59;;;;;;;;;;;;;;;32.06;38.87;99081.09;4923061;29;19930;-65
2022/07/26 08:43:26;;;;;;;;;;;;;;;32.01;38.65;99071.13;4920220;29;19931;-69
2022/07/26 08:45:53;;;;;;;;;;;;;;;31.80;38.37;99080.88;4909281;29;20419;-68
2022/07/26 08:48:19;;;;;;;;;;;;;;;31.37;39.62;99074.09;4911951;29;20357;-68
2022/07/26 08:50:45;;;;;;;;;;;;;;;31.80;39.07;99076.00;4902077;29;19931;-68
2022/07/26 08:53:12;;;;;;;;;;;;;;;32.49;37.90;99079.28;4921501;29;19931;-66
2022/07/26 08:55:37;;;;;;;;;;;;;;;33.01;36.93;99069.00;4928051;29;20025;-66
2022/07/26 08:58:03;;;;;;;;;;;;;;;33.65;36.13;99081.78;4913874;29;20037;-67
2022/07/26 09:00:31;;;;;;;;;;;;;;;33.82;35.08;99081.66;4910943;29;19941;-67
2022/07/26 09:02:57;;;;;;;;;;;;;;;34.02;34.86;99076.59;4919252;29;19931;-67
2022/07/26 09:05:26;;;;;;;;;;;;;;;34.24;34.24;99087.25;4927002;29;19931;-66
2022/07/26 09:07:51;;;;;;;;;;;;;;;34.62;33.86;99077.09;4919227;29;19977;-68
2022/07/26 09:10:17;;;;;;;;;;;;;;;35.18;32.93;99084.03;4921094;29;19966;-68
2022/07/26 09:12:43;;;;;;;;;;;;;;;35.10;33.11;99082.72;4923262;29;20039;-68
2022/07/26 09:15:17;;;;;;;;;;;;;;;34.74;33.61;99083.97;4915319;29;19939;-66
2022/07/26 09:17:45;;;;;;;;;;;;;;;34.03;34.86;99081.03;4921828;29;19931;-65
2022/07/26 09:20:12;;;;;;;;;;;;;;;32.87;36.35;99089.97;4914161;29;19931;-68
2022/07/26 09:22:54;;;;;;;;;;;;;;;32.08;37.95;99093.53;4924488;29;19930;-68
2022/07/26 09:25:20;;;;;;;;;;;;;;;32.63;36.83;99097.91;4919342;29;19950;-68
2022/07/26 09:27:46;;;;;;;;;;;;;;;32.20;37.84;99099.75;4922834;29;19930;-67
2022/07/26 09:30:12;;;;;;;;;;;;;;;31.90;38.20;99090.34;4917434;29;20444;-68
2022/07/26 09:32:38;;;;;;;;;;;;;;;31.63;38.16;99089.28;4924618;29;19938;-67
2022/07/26 09:35:15;;;;;;;;;;;;;;;31.71;38.30;99095.59;4933852;29;19931;-65
2022/07/26 09:37:45;;;;;;;;;;;;;;;32.02;37.90;99094.50;4923392;29;20403;-66
2022/07/26 09:40:12;;;;;;;;;;;;;;;33.31;36.14;99091.66;4927684;29;19937;-66
2022/07/26 09:42:52;;;;;;;;;;;;;;;34.73;33.47;99088.84;4929404;29;19986;-68
2022/07/26 09:45:17;;;;;;;;;;;;;;;34.66;33.18;99091.94;4921600;28;19938;-67
2022/07/26 09:47:43;;;;;;;;;;;;;;;34.02;34.55;99093.59;4917262;29;19935;-66
2022/07/26 09:50:14;;;;;;;;;;;;;;;34.72;33.05;99086.50;4924639;29;19930;-66
2022/07/26 09:52:55;;;;;;;;;;;;;;;35.70;31.44;99080.13;4932082;29;19978;-65
2022/07/26 09:55:21;;;;;;;;;;;;;;;36.62;29.89;99081.72;4913464;29;20042;-65
2022/07/26 09:57:49;;;;;;;;;;;;;;;37.49;28.46;99077.84;4924043;29;20047;-65
2022/07/26 10:00:15;;;;;;;;;;;;;;;37.99;27.55;99074.72;4920220;29;20448;-66
2022/07/26 10:02:41;;;;;;;;;;;;;;;36.95;29.67;99081.09;4923922;29;19958;-66
2022/07/26 10:05:07;;;;;;;;;;;;;;;36.50;30.06;99080.53;4922570;29;20480;-65
2022/07/26 10:07:35;;;;;;;;;;;;;;;37.06;29.40;99080.63;4935826;29;20026;-67
2022/07/26 10:10:03;;;;;;;;;;;;;;;38.12;27.90;99076.56;4913238;29;20022;-66
2022/07/26 10:12:30;;;;;;;;;;;;;;;38.77;26.80;99076.16;4925672;29;19945;-69
2022/07/26 10:14:56;;;;;;;;;;;;;;;39.37;26.14;99072.59;4927780;29;19931;-67
2022/07/26 10:17:39;;;;;;;;;;;;;;;39.48;25.60;99077.75;4919114;29;19935;-65
2022/07/26 10:20:06;;;;;;;;;;;;;;;39.41;26.14;99070.34;4916296;29;20406;-68
2022/07/26 10:22:34;;;;;;;;;;;;;;;39.45;26.66;99064.44;4925238;29;19930;-69
2022/07/26 10:25:14;;;;;;;;;;;;;;;39.92;26.11;99073.31;4923152;29;19947;-68
2022/07/26 10:27:42;;;;;;;;;;;;;;;39.76;24.99;99080.28;4922241;29;20398;-68
2022/07/26 10:30:25;;;;;;;;;;;;;;;39.37;25.20;99075.47;4923840;29;19963;-66
2022/07/26 10:33:00;;;;;;;;;;;;;;;39.73;24.83;99079.22;4921556;29;19942;-66
2022/07/26 10:35:32;;;;;;;;;;;;;;;40.36;23.71;99069.53;4920492;29;19937;-66
2022/07/26 10:37:59;;;;;;;;;;;;;;;38.80;25.51;99069.47;4914379;29;20029;-67
2022/07/26 10:40:28;;;;;;;;;;;;;;;38.10;26.70;99070.56;4926088;29;20429;-67
2022/07/26 10:43:07;;;;;;;;;;;;;;;38.75;25.94;99070.16;4919297;29;19935;-68
2022/07/26 10:45:33;;;;;;;;;;;;;;;39.11;25.10;99073.97;4914953;29;19937;-68
2022/07/26 10:48:10;;;;;;;;;;;;;;;39.10;25.16;99071.59;4921759;29;19935;-66
2022/07/26 10:50:36;;;;;;;;;;;;;;;39.04;25.48;99067.84;4907881;29;20420;-67
2022/07/26 10:53:02;;;;;;;;;;;;;;;38.83;25.53;99062.75;4909445;29;20053;-66
2022/07/26 10:55:27;;;;;;;;;;;;;;;37.34;27.17;99054.97;4915565;29;19935;-67
2022/07/26 10:57:53;;;;;;;;;;;;;;;35.90;29.00;99062.66;4911683;29;19937;-68
2022/07/26 11:00:22;;;;;;;;;;;;;;;34.67;30.93;99056.63;4918379;29;20337;-69
2022/07/26 11:02:54;;;;;;;;;;;;;;;33.80;31.88;99057.41;4909584;29;20082;-67
2022/07/26 11:05:21;;;;;;;;;;;;;;;33.21;32.97;99060.34;4910716;29;19930;-68
2022/07/26 11:07:50;;;;;;;;;;;;;;;33.21;33.14;99056.75;4914206;29;19931;-65
2022/07/26 11:10:16;;;;;;;;;;;;;;;33.34;33.03;99059.59;4908768;29;19931;-66
2022/07/26 11:12:41;;;;;;;;;;;;;;;33.35;32.71;99049.84;4921011;29;19931;-66
2022/07/26 11:15:13;;;;;;;;;;;;;;;33.26;32.93;99053.34;4921141;29;20299;-66
2022/07/26 11:17:40;;;;;;;;;;;;;;;34.32;31.81;99056.59;4927658;29;19980;-66
2022/07/26 11:20:06;;;;;;;;;;;;;;;35.92;29.17;99037.41;4918638;29;20706;-65
2022/07/26 11:22:33;;;;;;;;;;;;;;;36.16;29.04;99040.50;4907064;29;20391;-66
2022/07/26 11:24:59;;;;;;;;;;;;;;;35.83;29.07;99045.91;4912416;29;20303;-67
2022/07/26 11:27:24;;;;;;;;;;;;;;;34.97;30.34;99053.56;4909022;29;19931;-65
2022/07/26 11:29:50;;;;;;;;;;;;;;;34.08;31.53;99057.78;4919203;29;20397;-65
2022/07/26 11:32:17;;;;;;;;;;;;;;;33.49;32.65;99052.28;4922168;29;19938;-67
2022/07/26 11:34:45;;;;;;;;;;;;;;;33.70;32.17;99044.38;4909063;29;20037;-63
2022/07/26 11:37:11;;;;;;;;;;;;;;;33.60;32.49;99037.00;4916519;29;19955;-67
2022/07/26 11:39:37;;;;;;;;;;;;;;;33.86;32.27;99040.63;4908974;29;19931;-67
2022/07/26 11:42:04;;;;;;;;;;;;;;;35.80;29.62;99021.25;4914879;29;19931;-68
2022/07/26 11:44:30;;;;;;;;;;;;;;;37.98;26.64;99027.50;4921942;29;19939;-66
2022/07/26 11:46:56;;;;;;;;;;;;;;;39.32;24.76;99019.78;4924602;29;19937;-66
2022/07/26 11:49:23;;;;;;;;;;;;;;;40.28;23.85;99016.81;4907294;29;19959;-68
2022/07/26 11:51:52;;;;;;;;;;;;;;;40.97;22.95;99021.31;4907482;29;19973;-67
2022/07/26 11:54:18;;;;;;;;;;;;;;;41.43;21.95;99018.88;4905308;29;19930;-67
2022/07/26 11:56:50;;;;;;;;;;;;;;;41.04;22.24;99017.19;4914165;29;20008;-67
2022/07/26 11:59:17;;;;;;;;;;;;;;;40.76;22.41;99009.09;4906346;29;20029;-66
2022/07/26 12:01:44;;;;;;;;;;;;;;;40.64;22.77;99013.91;4916074;29;19937;-67
2022/07/26 12:04:17;;;;;;;;;;;;;;;40.67;22.64;99012.88;4914084;29;19986;-66
2022/07/26 12:06:43;;;;;;;;;;;;;;;40.37;22.87;99015.91;4912439;29;19955;-65
2022/07/26 12:09:10;;;;;;;;;;;;;;;40.95;22.40;99009.56;4908675;29;20399;-66
2022/07/26 12:11:36;;;;;;;;;;;;;;;41.87;21.24;99013.97;4905317;29;20392;-66
2022/07/26 12:14:02;;;;;;;;;;;;;;;40.85;22.38;99008.16;4905912;29;20355;-68
2022/07/26 12:16:39;;;;;;;;;;;;;;;39.27;23.89;99020.47;4906871;29;19978;-66
2022/07/26 12:19:05;;;;;;;;;;;;;;;37.60;25.96;99014.66;4238029;28;10000008;-68
2022/07/26 12:21:38;;;;;;;;;;;;;;;36.32;27.74;99010.19;4923497;29;19934;-65
2022/07/26 12:24:04;;;;;;;;;;;;;;;35.12;29.20;99005.59;4911681;29;19931;-66
2022/07/26 12:26:32;;;;;;;;;;;;;;;34.45;30.20;99011.19;4913205;29;20078;-69
2022/07/26 12:29:23;;;;;;;;;;;;;;;34.08;30.36;99008.78;4923736;29;19938;-68
2022/07/26 12:31:45;;;;;;;;;;;;;;;35.38;28.80;99014.72;4909413;29;20426;-67
2022/07/26 12:34:10;;;;;;;;;;;;;;;36.22;27.46;99015.09;4904256;29;20434;-68
2022/07/26 12:36:36;;;;;;;;;;;;;;;37.57;26.00;99016.44;4909766;29;20015;-68
2022/07/26 12:39:03;;;;;;;;;;;;;;;37.40;25.97;99013.13;4909452;29;20017;-67
2022/07/26 12:41:35;;;;;;;;;;;;;;;36.59;27.20;99009.44;4907545;29;19935;-65
2022/07/26 12:44:00;;;;;;;;;;;;;;;35.62;28.18;99011.41;4910577;29;19931;-65
2022/07/26 12:46:26;;;;;;;;;;;;;;;34.89;28.83;99008.41;4902353;29;20299;-67